createdAt,value
2023-02-14T00:00:54.747Z,90.72
2023-02-14T00:03:21.466Z,89.90
2023-02-14T00:05:48.222Z,93.03
2023-02-14T00:08:16.149Z,81.55
2023-02-14T00:10:42.870Z,89.38
2023-02-14T00:13:09.577Z,85.38
2023-02-14T00:15:36.294Z,88.30
2023-02-14T00:18:03.487Z,81.93
2023-02-14T00:20:30.207Z,91.60
2023-02-14T00:22:57.181Z,86.72
2023-02-14T00:25:23.868Z,84.53
2023-02-14T00:27:50.645Z,84.82
2023-02-14T00:30:17.462Z,84.60
2023-02-14T00:32:44.385Z,85.35
2023-02-14T00:35:11.623Z,88.68
2023-02-14T00:37:38.427Z,87.32
2023-02-14T00:40:07.194Z,89.05
2023-02-14T00:42:34.240Z,86.28
2023-02-14T00:45:01.115Z,90.38
2023-02-14T00:47:27.872Z,82.10
2023-02-14T00:49:54.580Z,81.90
2023-02-14T00:52:21.376Z,85.10
2023-02-14T00:54:48.069Z,95.28
2023-02-14T00:57:14.819Z,91.75
2023-02-14T00:59:41.560Z,83.60
2023-02-14T01:02:08.336Z,93.80
2023-02-14T01:04:36.512Z,78.93
2023-02-14T01:07:03.379Z,77.22
2023-02-14T01:09:30.064Z,84.50
2023-02-14T01:11:56.838Z,82.90
2023-02-14T01:14:23.790Z,81.75
2023-02-14T01:16:50.520Z,86.55
2023-02-14T01:19:17.335Z,78.10
2023-02-14T01:21:44.301Z,82.75
2023-02-14T01:24:12.752Z,83.03
2023-02-14T01:26:39.732Z,82.38
2023-02-14T01:29:06.612Z,89.15
2023-02-14T01:31:35.129Z,87.78
2023-02-14T01:34:02.860Z,91.70
2023-02-14T01:36:33.741Z,89.45
2023-02-14T01:39:03.958Z,80.72
2023-02-14T01:41:33.166Z,78.22
2023-02-14T01:44:03.119Z,82.75
2023-02-14T01:46:33.101Z,88.50
2023-02-14T01:49:10.802Z,77.75
2023-02-14T01:51:48.812Z,87.15
2023-02-14T01:54:17.534Z,89.70
2023-02-14T01:56:48.440Z,84.35
2023-02-14T01:59:20.782Z,83.95
2023-02-14T02:01:50.340Z,94.53
2023-02-14T02:04:23.776Z,90.28
2023-02-14T02:06:55.877Z,76.63
2023-02-14T02:09:42.334Z,78.95
2023-02-14T02:12:09.276Z,88.63
2023-02-14T02:14:36.664Z,85.90
2023-02-14T02:17:25.172Z,86.53
2023-02-14T02:20:06.479Z,84.38
2023-02-14T02:22:38.920Z,81.25
2023-02-14T02:25:23.609Z,86.25
2023-02-14T02:28:18.301Z,85.82
2023-02-14T02:31:11.043Z,85.75
2023-02-14T02:34:10.905Z,82.47
2023-02-14T02:36:46.285Z,83.07
2023-02-14T02:39:32.716Z,89.40
2023-02-14T02:42:14.446Z,89.03
2023-02-14T02:44:50.945Z,87.00
2023-02-14T02:47:20.604Z,80.50
2023-02-14T02:50:09.284Z,87.13
2023-02-14T02:53:07.738Z,83.30
2023-02-14T02:56:12.696Z,90.68
2023-02-14T02:58:53.739Z,80.72
2023-02-14T03:01:41.653Z,87.97
2023-02-14T03:04:30.454Z,87.13
2023-02-14T03:06:58.980Z,78.45
2023-02-14T03:09:28.658Z,85.75
2023-02-14T03:12:31.361Z,79.32
2023-02-14T03:15:17.025Z,83.03
2023-02-14T03:18:03.231Z,83.25
2023-02-14T03:20:52.387Z,86.43
2023-02-14T03:23:29.332Z,84.78
2023-02-14T03:26:08.176Z,84.18
2023-02-14T03:28:47.748Z,82.07
2023-02-14T03:31:40.710Z,86.18
2023-02-14T03:34:19.398Z,90.70
2023-02-14T03:37:11.369Z,86.95
2023-02-14T03:39:45.918Z,83.13
2023-02-14T03:42:21.439Z,91.50
2023-02-14T03:47:21.330Z,85.25
2023-02-14T03:49:56.596Z,81.85
2023-02-14T03:52:26.680Z,86.82
2023-02-14T03:54:56.680Z,82.88
2023-02-14T03:57:32.513Z,87.60
2023-02-14T03:59:59.681Z,85.95
2023-02-14T04:02:35.804Z,83.88
2023-02-14T04:05:07.348Z,85.78
2023-02-14T04:07:48.807Z,83.15
2023-02-14T04:10:16.944Z,79.90
2023-02-14T04:12:43.786Z,85.63
2023-02-14T04:15:11.513Z,92.75
2023-02-14T04:17:56.964Z,89.65
2023-02-14T04:20:23.807Z,89.60
2023-02-14T04:22:51.716Z,80.82
2023-02-14T04:25:19.960Z,83.75
2023-02-14T04:27:46.799Z,81.15
2023-02-14T04:30:14.970Z,95.32
2023-02-14T04:32:41.807Z,90.10
2023-02-14T04:35:08.753Z,90.22
2023-02-14T04:37:35.572Z,94.10
2023-02-14T04:40:02.332Z,92.60
2023-02-14T04:42:29.428Z,91.63
2023-02-14T04:44:56.246Z,96.15
2023-02-14T04:47:23.041Z,91.60
2023-02-14T04:49:49.861Z,89.10
2023-02-14T04:52:16.614Z,87.43
2023-02-14T04:54:44.254Z,88.07
2023-02-14T04:57:10.979Z,87.38
2023-02-14T04:59:37.661Z,97.28
2023-02-14T05:02:04.462Z,91.47
2023-02-14T05:04:31.493Z,96.35
2023-02-14T05:06:58.562Z,94.07
2023-02-14T05:09:25.193Z,92.65
2023-02-14T05:11:52.189Z,94.13
2023-02-14T05:14:18.850Z,91.28
2023-02-14T05:16:45.547Z,90.63
2023-02-14T05:19:12.402Z,91.78
2023-02-14T05:21:39.125Z,86.50
2023-02-14T05:24:06.142Z,94.95
2023-02-14T05:26:33.212Z,85.35
2023-02-14T05:28:59.875Z,93.38
2023-02-14T05:31:27.016Z,88.82
2023-02-14T05:33:53.899Z,84.78
2023-02-14T05:36:20.713Z,88.85
2023-02-14T05:38:47.424Z,96.40
2023-02-14T05:41:14.181Z,92.60
2023-02-14T05:43:40.986Z,87.53
2023-02-14T05:46:07.733Z,89.82
2023-02-14T05:48:34.878Z,88.75
2023-02-14T05:51:09.487Z,84.65
2023-02-14T05:53:36.777Z,89.13
2023-02-14T05:56:03.757Z,88.97
2023-02-14T05:58:30.971Z,91.80
2023-02-14T06:00:59.030Z,88.10
2023-02-14T06:03:26.241Z,88.88
2023-02-14T06:05:53.000Z,85.53
2023-02-14T06:08:19.864Z,85.88
2023-02-14T06:10:46.793Z,92.78
2023-02-14T06:13:13.586Z,90.80
2023-02-14T06:15:40.383Z,85.30
2023-02-14T06:18:07.487Z,84.63
2023-02-14T06:20:34.309Z,89.72
2023-02-14T06:23:02.116Z,84.38
2023-02-14T06:25:28.962Z,88.63
2023-02-14T06:27:57.422Z,92.82
2023-02-14T06:30:24.947Z,84.03
2023-02-14T06:32:52.024Z,83.68
2023-02-14T06:35:18.888Z,87.97
2023-02-14T06:37:46.046Z,83.75
2023-02-14T06:40:13.543Z,83.15
2023-02-14T06:42:40.449Z,85.28
2023-02-14T06:45:07.679Z,93.43
2023-02-14T06:47:35.233Z,103.00
2023-02-14T06:50:04.765Z,96.20
2023-02-14T06:52:32.863Z,82.25
2023-02-14T06:54:59.632Z,84.65
2023-02-14T06:57:26.332Z,87.47
2023-02-14T06:59:53.082Z,85.63
2023-02-14T07:02:20.973Z,102.72
2023-02-14T07:04:48.482Z,88.45
2023-02-14T07:07:15.257Z,89.43
2023-02-14T07:09:41.935Z,87.63
2023-02-14T07:12:09.410Z,97.93
2023-02-14T07:14:36.474Z,85.47
2023-02-14T07:17:03.262Z,85.65
2023-02-14T07:19:29.932Z,86.88
2023-02-14T07:21:56.577Z,81.80
2023-02-14T07:24:23.299Z,87.35
2023-02-14T07:26:50.059Z,86.10
2023-02-14T07:29:16.856Z,86.47
2023-02-14T07:31:43.734Z,89.45
2023-02-14T07:34:10.604Z,84.68
2023-02-14T07:36:38.966Z,86.97
2023-02-14T07:39:05.988Z,93.93
2023-02-14T07:41:32.720Z,88.13
2023-02-14T07:43:59.660Z,84.88
2023-02-14T07:46:26.492Z,92.63
2023-02-14T07:48:53.186Z,87.82
2023-02-14T07:51:19.998Z,81.25
2023-02-14T07:53:47.071Z,88.22
2023-02-14T07:56:13.824Z,81.95
2023-02-14T07:58:40.697Z,94.03
2023-02-14T08:01:07.433Z,79.25
2023-02-14T08:03:34.155Z,82.75
2023-02-14T08:06:00.928Z,90.30
2023-02-14T08:08:29.826Z,82.00
2023-02-14T08:10:57.114Z,86.80
2023-02-14T08:13:24.164Z,82.20
2023-02-14T08:16:06.266Z,86.72
2023-02-14T08:18:36.588Z,79.47
2023-02-14T08:21:04.321Z,85.22
2023-02-14T08:23:31.306Z,75.47
2023-02-14T08:25:58.375Z,78.47
2023-02-14T08:28:26.394Z,82.65
2023-02-14T08:30:53.940Z,86.28
2023-02-14T08:33:21.269Z,82.03
2023-02-14T08:35:48.301Z,88.13
2023-02-14T08:38:15.189Z,88.18
2023-02-14T08:40:42.064Z,90.50
2023-02-14T08:43:09.604Z,84.95
2023-02-14T08:45:37.220Z,88.47
2023-02-14T08:48:06.653Z,90.43
2023-02-14T08:50:33.965Z,88.30
2023-02-14T08:53:00.775Z,92.85
2023-02-14T08:55:27.805Z,100.30
2023-02-14T08:57:58.109Z,83.82
2023-02-14T09:00:25.069Z,97.88
2023-02-14T09:02:53.350Z,105.25
2023-02-14T09:05:23.245Z,102.10
2023-02-14T09:07:50.794Z,93.82
2023-02-14T09:10:18.877Z,97.55
2023-02-14T09:12:45.885Z,101.18
2023-02-14T09:15:12.933Z,101.85
2023-02-14T09:17:39.808Z,97.85
2023-02-14T09:20:08.926Z,96.10
2023-02-14T09:22:35.709Z,93.72
2023-02-14T09:25:02.747Z,99.30
2023-02-14T09:27:30.194Z,97.20
2023-02-14T09:29:56.859Z,87.72
2023-02-14T09:32:23.718Z,85.90
2023-02-14T09:35:08.861Z,87.82
2023-02-14T09:37:54.463Z,89.10
2023-02-14T09:40:21.883Z,93.63
2023-02-14T09:42:53.642Z,86.10
2023-02-14T09:45:26.914Z,88.32
2023-02-14T09:48:23.840Z,85.45
2023-02-14T09:50:55.888Z,80.32
2023-02-14T09:53:33.881Z,81.93
2023-02-14T09:56:03.748Z,83.82
2023-02-14T09:58:39.337Z,74.22
2023-02-14T10:01:22.250Z,69.88
2023-02-14T10:04:01.411Z,69.75
2023-02-14T10:06:46.294Z,71.72
2023-02-14T10:09:12.968Z,71.70
2023-02-14T10:11:43.782Z,72.75
2023-02-14T10:14:12.796Z,66.97
2023-02-14T10:16:46.177Z,69.05
2023-02-14T10:19:27.470Z,79.15
2023-02-14T10:22:02.454Z,71.38
2023-02-14T10:24:53.919Z,73.75
2023-02-14T10:27:34.947Z,72.63
2023-02-14T10:30:03.482Z,69.65
2023-02-14T10:32:45.140Z,71.90
2023-02-14T10:35:36.854Z,72.13
2023-02-14T10:38:18.492Z,67.43
2023-02-14T10:41:19.144Z,78.45
2023-02-14T10:44:03.670Z,77.78
2023-02-14T10:46:41.154Z,74.72
2023-02-14T10:49:48.678Z,72.07
2023-02-14T10:52:40.810Z,75.85
2023-02-14T10:55:31.964Z,78.93
2023-02-14T10:58:01.585Z,76.25
2023-02-14T11:00:38.494Z,69.10
2023-02-14T11:03:09.496Z,71.22
2023-02-14T11:05:46.210Z,69.07
2023-02-14T11:08:37.958Z,72.30
2023-02-14T11:11:16.560Z,75.63
2023-02-14T11:13:44.164Z,78.80
2023-02-14T11:16:18.318Z,69.47
2023-02-14T11:18:45.057Z,69.90
2023-02-14T11:21:15.028Z,68.28
2023-02-14T11:23:44.941Z,74.22
2023-02-14T11:26:22.098Z,69.40
2023-02-14T11:28:53.687Z,65.22
2023-02-14T11:31:38.806Z,64.32
2023-02-14T11:34:26.178Z,68.35
2023-02-14T11:36:53.669Z,62.35
2023-02-14T11:39:40.655Z,62.53
2023-02-14T11:42:10.894Z,60.60
2023-02-14T11:44:43.912Z,59.50
2023-02-14T11:47:42.915Z,62.65
2023-02-14T11:50:24.642Z,54.53
2023-02-14T11:52:54.739Z,58.95
2023-02-14T11:55:28.084Z,60.03
2023-02-14T11:57:55.558Z,54.85
2023-02-14T12:00:23.516Z,59.03
2023-02-14T12:02:51.458Z,58.58
2023-02-14T12:05:24.127Z,60.67
2023-02-14T12:07:54.093Z,57.65
2023-02-14T12:10:33.154Z,55.42
2023-02-14T12:13:08.766Z,62.28
2023-02-14T12:15:43.143Z,64.50
2023-02-14T12:18:21.952Z,62.28
2023-02-14T12:20:57.060Z,60.47
2023-02-14T12:23:31.803Z,63.78
2023-02-14T12:26:36.586Z,60.05
2023-02-14T12:29:29.419Z,62.08
2023-02-14T12:32:01.536Z,58.20
2023-02-14T12:34:28.557Z,59.13
2023-02-14T12:37:10.698Z,62.63
2023-02-14T12:40:08.546Z,62.60
2023-02-14T12:42:35.349Z,58.72
2023-02-14T12:45:12.791Z,56.95
2023-02-14T12:47:45.456Z,60.67
2023-02-14T12:50:30.326Z,62.80
2023-02-14T12:53:18.727Z,53.92
2023-02-14T12:56:11.939Z,64.15
2023-02-14T12:59:04.437Z,49.17
2023-02-14T13:01:40.311Z,58.22
2023-02-14T13:04:25.917Z,54.75
2023-02-14T13:07:38.044Z,53.15
2023-02-14T13:10:40.429Z,55.10
2023-02-14T13:13:53.087Z,62.40
2023-02-14T13:16:56.002Z,62.95
2023-02-14T13:20:10.213Z,63.35
2023-02-14T13:22:37.433Z,69.95
2023-02-14T13:25:31.623Z,63.80
2023-02-14T13:28:01.718Z,60.17
2023-02-14T13:30:36.926Z,64.00
2023-02-14T13:33:14.840Z,69.72
2023-02-14T13:35:42.251Z,64.53
2023-02-14T13:38:15.417Z,66.63
2023-02-14T13:40:43.089Z,62.55
2023-02-14T13:43:09.868Z,64.78
2023-02-14T13:45:37.661Z,64.63
2023-02-14T13:48:21.513Z,65.95
2023-02-14T13:51:03.825Z,65.57
2023-02-14T13:53:43.724Z,64.40
2023-02-14T13:56:15.277Z,71.72
2023-02-14T13:58:55.073Z,69.38
2023-02-14T14:01:36.969Z,62.35
2023-02-14T14:04:28.819Z,66.68
2023-02-14T14:07:23.359Z,66.05
2023-02-14T14:09:49.981Z,67.72
2023-02-14T14:12:28.759Z,68.05
2023-02-14T14:15:08.087Z,68.10
2023-02-14T14:17:41.949Z,63.58
2023-02-14T14:20:20.642Z,77.35
2023-02-14T14:22:56.651Z,71.10
2023-02-14T14:25:37.246Z,74.60
2023-02-14T14:28:24.407Z,67.05
2023-02-14T14:30:51.656Z,69.20
2023-02-14T14:33:32.475Z,66.57
2023-02-14T14:36:10.083Z,73.05
2023-02-14T14:38:48.446Z,70.75
2023-02-14T14:41:15.254Z,69.07
2023-02-14T14:43:42.265Z,77.90
2023-02-14T14:46:12.698Z,76.45
2023-02-14T14:48:45.382Z,82.10
2023-02-14T14:51:30.650Z,75.47
2023-02-14T14:54:00.663Z,79.53
2023-02-14T14:56:31.173Z,79.20
2023-02-14T14:59:15.231Z,79.40
2023-02-14T15:01:44.068Z,83.13
2023-02-14T15:04:20.653Z,77.18
2023-02-14T15:06:48.402Z,76.88
2023-02-14T15:09:29.487Z,77.93
2023-02-14T15:12:17.061Z,76.22
2023-02-14T15:14:46.347Z,85.85
2023-02-14T15:17:29.204Z,77.75
2023-02-14T15:20:00.822Z,81.30
2023-02-14T15:22:32.864Z,76.00
2023-02-14T15:24:59.938Z,83.50
2023-02-14T15:27:28.401Z,73.90
2023-02-14T15:29:56.963Z,80.28
2023-02-14T15:32:25.883Z,82.25
2023-02-14T15:34:54.073Z,74.93
2023-02-14T15:37:22.042Z,88.18
2023-02-14T15:39:52.475Z,79.78
2023-02-14T15:42:22.646Z,84.88
2023-02-14T15:44:49.417Z,80.20
2023-02-14T15:47:16.810Z,79.40
2023-02-14T15:49:46.561Z,77.03
2023-02-14T15:52:16.194Z,84.90
2023-02-14T15:54:47.664Z,82.20
2023-02-14T15:57:25.429Z,84.88
2023-02-14T15:59:52.558Z,79.60
2023-02-14T16:02:30.447Z,85.05
2023-02-14T16:05:08.507Z,83.57
2023-02-14T16:07:35.417Z,84.00
2023-02-14T16:10:25.096Z,79.47
2023-02-14T16:13:20.438Z,83.43
2023-02-14T16:16:04.800Z,87.40
2023-02-14T16:18:49.895Z,84.45
2023-02-14T16:21:27.620Z,84.67
2023-02-14T16:24:06.829Z,82.88
2023-02-14T16:26:46.846Z,79.88
2023-02-14T16:29:16.189Z,87.55
2023-02-14T16:32:24.054Z,80.95
2023-02-14T16:34:41.620Z,78.70
2023-02-14T16:37:37.637Z,81.85
2023-02-14T16:40:13.249Z,84.55
2023-02-14T16:42:41.100Z,84.38
2023-02-14T16:45:14.153Z,86.43
2023-02-14T16:47:40.881Z,80.32
2023-02-14T16:50:08.158Z,88.65
2023-02-14T16:52:35.362Z,85.20
2023-02-14T16:55:02.824Z,81.25
2023-02-14T16:57:41.574Z,84.03
2023-02-14T17:00:09.583Z,78.43
2023-02-14T17:02:36.953Z,83.28
2023-02-14T17:05:04.191Z,85.22
2023-02-14T17:07:33.127Z,82.88
2023-02-14T17:10:05.300Z,73.35
2023-02-14T17:12:36.380Z,80.70
2023-02-14T17:15:08.308Z,83.00
2023-02-14T17:17:37.394Z,82.68
2023-02-14T17:20:05.780Z,74.65
2023-02-14T17:22:34.261Z,80.10
2023-02-14T17:25:01.058Z,82.40
2023-02-14T17:27:27.700Z,84.88
2023-02-14T17:29:54.661Z,84.78
2023-02-14T17:32:21.394Z,77.05
2023-02-14T17:34:49.147Z,78.82
2023-02-14T17:37:15.921Z,76.28
2023-02-14T17:39:42.712Z,73.88
2023-02-14T17:42:11.730Z,73.95
2023-02-14T17:44:38.917Z,80.82
2023-02-14T17:47:05.996Z,69.60
2023-02-14T17:49:32.797Z,82.72
2023-02-14T17:51:59.560Z,76.45
2023-02-14T17:54:26.334Z,77.78
2023-02-14T17:56:53.373Z,76.53
2023-02-14T17:59:20.346Z,76.25
2023-02-14T18:01:47.128Z,81.78
2023-02-14T18:04:13.963Z,81.30
2023-02-14T18:06:42.502Z,82.63
2023-02-14T18:09:09.261Z,82.20
2023-02-14T18:11:38.713Z,83.95
2023-02-14T18:14:05.351Z,76.05
2023-02-14T18:16:32.143Z,83.32
2023-02-14T18:19:02.987Z,74.70
2023-02-14T18:21:35.560Z,84.40
2023-02-14T18:24:03.766Z,79.68
2023-02-14T18:26:31.289Z,85.97
2023-02-14T18:28:58.806Z,90.05
2023-02-14T18:31:26.709Z,92.60
2023-02-14T18:33:53.789Z,87.53
2023-02-14T18:36:24.297Z,75.43
2023-02-14T18:38:51.155Z,72.10
2023-02-14T18:41:19.938Z,78.97
2023-02-14T18:43:47.378Z,82.25
2023-02-14T18:46:17.217Z,73.57
2023-02-14T18:48:44.455Z,76.15
2023-02-14T18:51:13.695Z,80.40
2023-02-14T18:53:41.081Z,73.47
2023-02-14T18:56:10.188Z,74.18
2023-02-14T18:58:37.251Z,76.28
2023-02-14T19:01:09.374Z,79.93
2023-02-14T19:03:36.460Z,76.70
2023-02-14T19:06:03.538Z,79.55
2023-02-14T19:08:35.058Z,86.68
2023-02-14T19:11:02.546Z,78.90
2023-02-14T19:13:32.157Z,77.95
2023-02-14T19:15:59.581Z,87.32
2023-02-14T19:18:26.821Z,86.32
2023-02-14T19:20:53.548Z,77.20
2023-02-14T19:23:20.230Z,78.10
2023-02-14T19:25:46.964Z,80.45
2023-02-14T19:28:13.836Z,83.70
2023-02-14T19:30:40.598Z,89.65
2023-02-14T19:33:07.369Z,79.15
2023-02-14T19:35:34.126Z,82.25
2023-02-14T19:38:03.471Z,78.57
2023-02-14T19:40:30.853Z,77.80
2023-02-14T19:42:57.852Z,85.88
2023-02-14T19:45:24.620Z,81.95
2023-02-14T19:47:51.271Z,82.53
2023-02-14T19:50:19.423Z,83.28
2023-02-14T19:52:47.142Z,72.90
2023-02-14T19:55:32.012Z,77.22
2023-02-14T19:57:58.769Z,80.88
2023-02-14T20:00:25.553Z,76.55
2023-02-14T20:02:52.473Z,82.35
2023-02-14T20:05:20.056Z,82.93
2023-02-14T20:07:49.228Z,80.10
2023-02-14T20:10:16.682Z,75.95
2023-02-14T20:12:43.374Z,81.22
2023-02-14T20:15:11.069Z,77.43
2023-02-14T20:17:38.112Z,80.68
2023-02-14T20:20:06.086Z,85.30
2023-02-14T20:22:32.812Z,82.43
2023-02-14T20:24:59.951Z,81.70
2023-02-14T20:27:26.818Z,82.28
2023-02-14T20:29:53.854Z,78.70
2023-02-14T20:32:20.749Z,75.80
2023-02-14T20:34:48.020Z,81.60
2023-02-14T20:37:14.702Z,77.47
2023-02-14T20:39:41.721Z,79.82
2023-02-14T20:42:08.562Z,78.50
2023-02-14T20:44:35.639Z,81.50
2023-02-14T20:47:02.476Z,82.68
2023-02-14T20:49:31.055Z,75.30
2023-02-14T20:51:58.173Z,83.28
2023-02-14T20:54:26.379Z,83.95
2023-02-14T20:56:53.309Z,84.45
2023-02-14T20:59:26.792Z,82.05
2023-02-14T21:01:55.092Z,79.80
2023-02-14T21:04:22.272Z,82.60
2023-02-14T21:06:49.089Z,84.70
2023-02-14T21:09:18.690Z,79.35
2023-02-14T21:11:45.419Z,87.68
2023-02-14T21:14:12.502Z,92.47
2023-02-14T21:16:39.261Z,83.68
2023-02-14T21:19:06.003Z,83.65
2023-02-14T21:21:36.440Z,88.15
2023-02-14T21:24:06.872Z,86.75
2023-02-14T21:26:33.928Z,90.53
2023-02-14T21:29:01.566Z,91.50
2023-02-14T21:31:29.223Z,95.90
2023-02-14T21:33:58.922Z,84.57
2023-02-14T21:36:31.572Z,83.70
2023-02-14T21:39:00.255Z,87.30
2023-02-14T21:41:31.112Z,88.10
2023-02-14T21:44:00.008Z,88.88
2023-02-14T21:46:32.815Z,91.88
2023-02-14T21:49:23.741Z,94.07
2023-02-14T21:51:50.517Z,84.22
2023-02-14T21:54:17.577Z,88.10
2023-02-14T21:56:44.497Z,94.35
2023-02-14T21:59:11.969Z,88.13
2023-02-14T22:01:40.474Z,102.90
2023-02-14T22:04:09.515Z,93.38
2023-02-14T22:06:38.681Z,95.82
2023-02-14T22:09:06.287Z,94.32
2023-02-14T22:11:33.825Z,94.43
2023-02-14T22:14:01.161Z,95.50
2023-02-14T22:16:27.839Z,102.97
2023-02-14T22:18:54.589Z,101.68
2023-02-14T22:21:24.253Z,102.47
2023-02-14T22:23:51.529Z,109.18
2023-02-14T22:26:19.869Z,110.70
2023-02-14T22:28:48.115Z,121.75
2023-02-14T22:31:16.911Z,111.40
2023-02-14T22:33:43.756Z,111.40
2023-02-14T22:36:11.113Z,114.82
2023-02-14T22:38:38.694Z,115.57
2023-02-14T22:41:06.413Z,127.05
2023-02-14T22:43:33.613Z,113.75
2023-02-14T22:46:12.162Z,121.38
2023-02-14T22:48:40.175Z,120.10
2023-02-14T22:51:12.849Z,123.38
2023-02-14T22:53:39.736Z,134.60
2023-02-14T22:56:24.787Z,129.77
2023-02-14T22:58:56.072Z,129.65
2023-02-14T23:01:24.284Z,131.57
2023-02-14T23:03:56.821Z,131.40
2023-02-14T23:06:24.952Z,118.03
2023-02-14T23:08:52.391Z,116.13
2023-02-14T23:11:23.672Z,119.82
2023-02-14T23:14:09.259Z,114.35
2023-02-14T23:16:54.880Z,105.35
2023-02-14T23:19:46.374Z,108.88
2023-02-14T23:22:16.136Z,107.35
2023-02-14T23:24:42.961Z,109.55
2023-02-14T23:27:09.908Z,106.60
2023-02-14T23:29:37.341Z,112.60
2023-02-14T23:32:05.596Z,106.63
2023-02-14T23:34:34.629Z,114.03
2023-02-14T23:37:02.244Z,112.55
2023-02-14T23:39:32.471Z,100.70
2023-02-14T23:41:59.436Z,115.10
2023-02-14T23:44:28.447Z,112.60
2023-02-14T23:46:57.859Z,103.85
2023-02-14T23:49:25.536Z,112.18
2023-02-14T23:51:54.467Z,105.88
2023-02-14T23:54:22.381Z,109.72
2023-02-14T23:56:50.038Z,107.28
2023-02-14T23:59:17.309Z,101.57
